createdAt,value
2023-05-09T00:01:41.452Z,90999.84
2023-05-09T00:04:26.477Z,90995.38
2023-05-09T00:07:11.440Z,90991.88
2023-05-09T00:09:56.281Z,90995.03
2023-05-09T00:12:41.237Z,90991.88
2023-05-09T00:15:26.095Z,90992.81
2023-05-09T00:18:11.239Z,90993.59
2023-05-09T00:20:56.297Z,90984.13
2023-05-09T00:23:41.348Z,90989.81
2023-05-09T00:26:26.223Z,90988.53
2023-05-09T00:29:11.177Z,90981.50
2023-05-09T00:31:56.256Z,90979.63
2023-05-09T00:34:41.129Z,90974.53
2023-05-09T00:37:26.108Z,90976.06
2023-05-09T00:40:11.057Z,90978.22
2023-05-09T00:42:56.196Z,90968.66
2023-05-09T00:45:41.118Z,90970.19
2023-05-09T00:48:26.133Z,90966.88
2023-05-09T00:51:11.014Z,90969.53
2023-05-09T00:53:56.100Z,90966.84
2023-05-09T00:56:41.551Z,90966.81
2023-05-09T00:59:26.430Z,90962.56
2023-05-09T01:02:11.498Z,90963.84
2023-05-09T01:04:56.365Z,90963.41
2023-05-09T01:07:41.454Z,90957.16
2023-05-09T01:10:26.451Z,90949.19
2023-05-09T01:13:12.337Z,90954.38
2023-05-09T01:15:57.479Z,90962.69
2023-05-09T01:18:42.308Z,90960.31
2023-05-09T01:21:27.204Z,90947.63
2023-05-09T01:24:12.092Z,90956.47
2023-05-09T01:26:57.029Z,90955.56
2023-05-09T01:29:42.013Z,90953.56
2023-05-09T01:32:26.997Z,90953.22
2023-05-09T01:35:11.895Z,90947.69
2023-05-09T01:37:56.708Z,90947.13
2023-05-09T01:40:41.771Z,90933.84
2023-05-09T01:43:26.641Z,90935.66
2023-05-09T01:46:11.680Z,90930.34
2023-05-09T01:48:56.577Z,90929.19
2023-05-09T01:51:43.663Z,90925.69
2023-05-09T01:54:29.087Z,90928.81
2023-05-09T01:57:14.022Z,90930.69
2023-05-09T01:59:59.239Z,90927.38
2023-05-09T02:02:44.109Z,90923.81
2023-05-09T02:05:28.935Z,90924.91
2023-05-09T02:08:13.926Z,90934.44
2023-05-09T02:10:58.976Z,90926.06
2023-05-09T02:13:43.988Z,90926.75
2023-05-09T02:16:28.904Z,90919.75
2023-05-09T02:19:13.899Z,90922.47
2023-05-09T02:21:59.015Z,90920.50
2023-05-09T02:24:44.131Z,90916.78
2023-05-09T02:27:29.128Z,90922.47
2023-05-09T02:30:14.116Z,90926.53
2023-05-09T02:32:59.212Z,90923.53
2023-05-09T02:35:44.015Z,90923.66
2023-05-09T02:38:28.760Z,90924.56
2023-05-09T02:41:13.600Z,90920.31
2023-05-09T02:44:00.121Z,90912.22
2023-05-09T02:46:45.127Z,90906.88
2023-05-09T02:49:32.451Z,90902.28
2023-05-09T02:52:17.697Z,90910.06
2023-05-09T02:55:03.689Z,90905.28
2023-05-09T02:57:50.405Z,90904.53
2023-05-09T03:00:36.887Z,90904.69
2023-05-09T03:03:22.213Z,90918.06
2023-05-09T03:06:07.167Z,90906.06
2023-05-09T03:08:52.825Z,90900.97
2023-05-09T03:11:37.841Z,90904.06
2023-05-09T03:14:22.600Z,90909.28
2023-05-09T03:17:07.644Z,90903.34
2023-05-09T03:19:52.607Z,90906.31
2023-05-09T03:22:37.447Z,90902.06
2023-05-09T03:25:22.554Z,90904.28
2023-05-09T03:28:07.257Z,90909.97
2023-05-09T03:30:52.345Z,90910.34
2023-05-09T03:33:37.294Z,90911.03
2023-05-09T03:36:22.316Z,90900.63
2023-05-09T03:39:07.179Z,90905.41
2023-05-09T03:41:52.097Z,90903.22
2023-05-09T03:44:37.080Z,90907.63
2023-05-09T03:47:21.998Z,90901.44
2023-05-09T03:50:06.984Z,90899.00
2023-05-09T03:52:51.881Z,90890.41
2023-05-09T03:55:36.886Z,90900.59
2023-05-09T03:58:21.780Z,90900.59
2023-05-09T04:01:06.746Z,90892.00
2023-05-09T04:03:51.744Z,90890.16
2023-05-09T04:06:36.734Z,90884.13
2023-05-09T04:09:21.895Z,90880.28
2023-05-09T04:12:06.968Z,90879.16
2023-05-09T04:14:52.740Z,90887.53
2023-05-09T04:17:37.766Z,90886.47
2023-05-09T04:20:22.742Z,90890.06
2023-05-09T04:23:07.654Z,90883.56
2023-05-09T04:25:52.662Z,90878.94
2023-05-09T04:28:37.578Z,90885.41
2023-05-09T04:31:22.818Z,90887.22
2023-05-09T04:34:08.019Z,90885.72
2023-05-09T04:36:52.808Z,90886.28
2023-05-09T04:39:37.703Z,90892.31
2023-05-09T04:42:22.642Z,90885.00
2023-05-09T04:45:07.556Z,90885.19
2023-05-09T04:47:52.284Z,90883.72
2023-05-09T04:50:37.117Z,90883.50
2023-05-09T04:53:22.211Z,90879.69
2023-05-09T04:56:07.270Z,90882.22
2023-05-09T04:58:52.296Z,90882.66
2023-05-09T05:01:37.112Z,90881.56
2023-05-09T05:04:21.722Z,90885.06
2023-05-09T05:07:06.676Z,90882.78
2023-05-09T05:09:51.617Z,90885.16
2023-05-09T05:12:36.681Z,90879.84
2023-05-09T05:15:21.566Z,90887.25
2023-05-09T05:18:06.575Z,90888.59
2023-05-09T05:20:51.485Z,90882.72
2023-05-09T05:23:36.724Z,90884.13
2023-05-09T05:26:21.742Z,90884.13
2023-05-09T05:29:06.860Z,90887.81
2023-05-09T05:31:51.750Z,90880.47
2023-05-09T05:34:36.696Z,90881.00
2023-05-09T05:37:21.582Z,90884.38
2023-05-09T05:40:06.728Z,90881.69
2023-05-09T05:42:51.928Z,90877.69
2023-05-09T05:45:37.006Z,90873.09
2023-05-09T05:48:22.042Z,90869.31
2023-05-09T05:51:06.932Z,90878.16
2023-05-09T05:53:51.971Z,90870.78
2023-05-09T05:56:36.894Z,90875.50
2023-05-09T05:59:21.795Z,90873.78
2023-05-09T06:02:06.793Z,90869.66
2023-05-09T06:04:53.293Z,90864.69
2023-05-09T06:07:38.856Z,90867.38
2023-05-09T06:10:23.682Z,90861.13
2023-05-09T06:13:08.761Z,90860.63
2023-05-09T06:15:53.767Z,90858.06
2023-05-09T06:18:39.227Z,90849.47
2023-05-09T06:21:24.244Z,90852.63
2023-05-09T06:24:16.568Z,90857.84
2023-05-09T06:27:08.832Z,90850.31
2023-05-09T06:29:53.766Z,90845.19
2023-05-09T06:32:38.816Z,90843.75
2023-05-09T06:35:23.643Z,90837.50
2023-05-09T06:38:08.704Z,90835.94
2023-05-09T06:40:53.637Z,90837.97
2023-05-09T06:43:38.675Z,90824.22
2023-05-09T06:46:23.673Z,90821.25
2023-05-09T06:49:08.608Z,90821.28
2023-05-09T06:51:53.589Z,90812.59
2023-05-09T06:54:38.449Z,90808.19
2023-05-09T06:57:23.412Z,90809.31
2023-05-09T07:00:08.364Z,90801.91
2023-05-09T07:02:53.492Z,90809.41
2023-05-09T07:05:38.288Z,90802.97
2023-05-09T07:08:23.068Z,90793.00
2023-05-09T07:11:08.132Z,90797.94
2023-05-09T07:13:53.300Z,90785.25
2023-05-09T07:16:38.459Z,90786.63
2023-05-09T07:19:23.392Z,90785.75
2023-05-09T07:22:08.433Z,90778.88
2023-05-09T07:24:53.294Z,90766.53
2023-05-09T07:27:38.432Z,90768.59
2023-05-09T07:30:23.450Z,90763.59
2023-05-09T07:33:08.311Z,90759.91
2023-05-09T07:35:53.603Z,90763.03
2023-05-09T07:38:38.637Z,90762.31
2023-05-09T07:41:23.674Z,90749.75
2023-05-09T07:44:08.561Z,90746.81
2023-05-09T07:46:53.592Z,90747.91
2023-05-09T07:49:38.467Z,90739.41
2023-05-09T07:52:23.373Z,90741.28
2023-05-09T07:55:08.213Z,90731.63
2023-05-09T07:57:53.219Z,90726.84
2023-05-09T08:00:38.099Z,90729.25
2023-05-09T08:03:23.223Z,90727.22
2023-05-09T08:06:08.160Z,90717.94
2023-05-09T08:08:53.030Z,90712.00
2023-05-09T08:11:38.044Z,90703.91
2023-05-09T08:14:22.784Z,90698.59
2023-05-09T08:17:07.791Z,90698.22
2023-05-09T08:19:52.941Z,90696.81
2023-05-09T08:22:37.899Z,90693.25
2023-05-09T08:25:22.933Z,90691.88
2023-05-09T08:28:07.855Z,90687.97
2023-05-09T08:30:52.836Z,90679.19
2023-05-09T08:33:39.323Z,90687.19
2023-05-09T08:36:25.587Z,90671.13
2023-05-09T08:39:10.497Z,90670.00
2023-05-09T08:41:55.597Z,90678.97
2023-05-09T08:44:40.532Z,90667.13
2023-05-09T08:47:25.444Z,90663.53
2023-05-09T08:50:10.482Z,90664.72
2023-05-09T08:52:55.407Z,90653.41
2023-05-09T08:55:40.397Z,90654.25
2023-05-09T08:58:25.341Z,90649.34
2023-05-09T09:01:10.370Z,90644.75
2023-05-09T09:03:55.442Z,90637.47
2023-05-09T09:06:40.328Z,90637.53
2023-05-09T09:09:25.350Z,90632.78
2023-05-09T09:12:10.106Z,90631.66
2023-05-09T09:14:55.150Z,90626.09
2023-05-09T09:17:40.182Z,90628.13
2023-05-09T09:20:25.092Z,90623.03
2023-05-09T09:23:09.881Z,90618.28
2023-05-09T09:25:54.845Z,90609.06
2023-05-09T09:28:39.936Z,90610.03
2023-05-09T09:31:24.852Z,90602.78
2023-05-09T09:34:09.709Z,90598.69
2023-05-09T09:36:54.749Z,90596.63
2023-05-09T09:39:39.669Z,90592.53
2023-05-09T09:42:24.619Z,90593.56
2023-05-09T09:45:09.624Z,90592.00
2023-05-09T09:47:54.636Z,90585.56
2023-05-09T09:50:39.373Z,90579.28
2023-05-09T09:53:24.282Z,90573.72
2023-05-09T09:56:09.231Z,90568.03
2023-05-09T09:58:54.354Z,90556.75
2023-05-09T10:01:39.117Z,90552.44
2023-05-09T10:04:24.042Z,90553.00
2023-05-09T10:07:11.093Z,90546.31
2023-05-09T10:09:57.596Z,90547.44
2023-05-09T10:12:42.466Z,90539.53
2023-05-09T10:15:28.716Z,90528.34
2023-05-09T10:18:14.982Z,90522.16
2023-05-09T10:21:00.356Z,90516.78
2023-05-09T10:23:45.286Z,90508.25
2023-05-09T10:26:30.230Z,90516.09
2023-05-09T10:29:14.815Z,90515.31
2023-05-09T10:31:59.781Z,90510.56
2023-05-09T10:34:44.723Z,90500.84
2023-05-09T10:37:30.947Z,90496.88
2023-05-09T10:40:16.450Z,90496.47
2023-05-09T10:43:01.478Z,90491.31
2023-05-09T10:45:46.580Z,90487.91
2023-05-09T10:48:31.515Z,90479.84
2023-05-09T10:51:16.514Z,90476.63
2023-05-09T10:54:01.471Z,90477.19
2023-05-09T10:56:46.382Z,90473.69
2023-05-09T10:59:31.393Z,90470.75
2023-05-09T11:02:16.404Z,90456.78
2023-05-09T11:05:01.407Z,90459.16
2023-05-09T11:07:46.495Z,90451.34
2023-05-09T11:10:31.354Z,90442.66
2023-05-09T11:13:16.491Z,90439.56
2023-05-09T11:16:01.489Z,90446.19
2023-05-09T11:18:46.403Z,90439.28
2023-05-09T11:21:31.412Z,90432.69
2023-05-09T11:24:16.566Z,90428.41
2023-05-09T11:27:01.548Z,90421.66
2023-05-09T11:29:46.538Z,90424.00
2023-05-09T11:32:31.486Z,90421.16
2023-05-09T11:35:16.662Z,90410.56
2023-05-09T11:38:01.610Z,90406.31
2023-05-09T11:40:46.585Z,90407.19
2023-05-09T11:43:31.586Z,90406.00
2023-05-09T11:46:16.565Z,90405.06
2023-05-09T11:49:01.568Z,90400.63
2023-05-09T11:51:49.325Z,90402.03
2023-05-09T11:54:34.368Z,90385.53
2023-05-09T11:57:19.534Z,90381.66
2023-05-09T12:00:04.316Z,90384.03
2023-05-09T12:02:49.456Z,90375.00
2023-05-09T12:05:34.313Z,90373.53
2023-05-09T12:08:19.219Z,90374.69
2023-05-09T12:11:04.100Z,90375.00
2023-05-09T12:13:49.134Z,90366.78
2023-05-09T12:16:36.920Z,90378.88
2023-05-09T12:19:21.798Z,90361.69
2023-05-09T12:22:06.936Z,90358.97
2023-05-09T12:24:51.730Z,90361.25
2023-05-09T12:27:36.852Z,90362.94
2023-05-09T12:30:21.916Z,90362.06
2023-05-09T12:33:06.878Z,90361.44
2023-05-09T12:35:52.858Z,90357.13
2023-05-09T12:38:38.776Z,90359.44
2023-05-09T12:41:37.120Z,90351.81
2023-05-09T12:44:24.130Z,90358.78
2023-05-09T12:47:09.120Z,90347.03
2023-05-09T12:49:54.045Z,90347.91
2023-05-09T12:52:46.933Z,90349.91
2023-05-09T12:55:43.572Z,90345.47
2023-05-09T12:58:28.524Z,90346.44
2023-05-09T13:01:13.420Z,90346.34
2023-05-09T13:03:58.245Z,90350.88
2023-05-09T13:06:43.067Z,90341.63
2023-05-09T13:09:28.176Z,90346.75
2023-05-09T13:12:13.038Z,90343.94
2023-05-09T13:14:58.104Z,90352.06
2023-05-09T13:17:43.105Z,90350.47
2023-05-09T13:20:27.909Z,90342.19
2023-05-09T13:23:12.942Z,90343.38
2023-05-09T13:25:57.869Z,90344.66
2023-05-09T13:28:42.584Z,90340.25
2023-05-09T13:31:27.341Z,90339.06
2023-05-09T13:34:12.454Z,90335.44
2023-05-09T13:36:57.453Z,90335.75
2023-05-09T13:39:42.373Z,90330.19
2023-05-09T13:42:27.253Z,90339.53
2023-05-09T13:45:12.450Z,90327.94
2023-05-09T13:47:57.184Z,90327.50
2023-05-09T13:50:42.143Z,90321.97
2023-05-09T13:53:26.861Z,90321.25
2023-05-09T13:56:11.747Z,90325.66
2023-05-09T13:58:56.789Z,90325.50
2023-05-09T14:01:43.637Z,90318.28
2023-05-09T14:04:28.701Z,90322.53
2023-05-09T14:07:13.565Z,90317.13
2023-05-09T14:10:10.491Z,90318.47
2023-05-09T14:12:56.390Z,90323.00
2023-05-09T14:15:41.285Z,90325.03
2023-05-09T14:18:26.168Z,90327.56
2023-05-09T14:21:11.127Z,90333.56
2023-05-09T14:23:56.161Z,90331.34
2023-05-09T14:29:25.777Z,90334.53
2023-05-09T14:32:10.752Z,90326.00
2023-05-09T14:34:55.813Z,90331.72
2023-05-09T14:37:40.464Z,90331.13
2023-05-09T14:40:27.915Z,90326.13
2023-05-09T14:43:13.008Z,90334.50
2023-05-09T14:45:57.869Z,90330.28
2023-05-09T14:48:42.853Z,90324.88
2023-05-09T14:51:27.788Z,90330.31
2023-05-09T14:54:12.967Z,90322.56
2023-05-09T14:56:57.942Z,90324.63
2023-05-09T14:59:42.897Z,90323.28
2023-05-09T15:02:27.906Z,90332.50
2023-05-09T15:05:12.671Z,90328.56
2023-05-09T15:07:57.647Z,90332.13
2023-05-09T15:10:42.416Z,90330.06
2023-05-09T15:13:27.488Z,90335.47
2023-05-09T15:16:12.422Z,90338.09
2023-05-09T15:18:57.329Z,90343.75
2023-05-09T15:21:42.249Z,90343.00
2023-05-09T15:24:27.324Z,90337.59
2023-05-09T15:27:12.182Z,90349.13
2023-05-09T15:29:57.147Z,90350.44
2023-05-09T15:32:42.342Z,90339.69
2023-05-09T15:35:27.024Z,90351.63
2023-05-09T15:38:13.905Z,90354.66
2023-05-09T15:40:58.821Z,90351.72
2023-05-09T15:43:43.954Z,90355.69
2023-05-09T15:46:28.855Z,90349.91
2023-05-09T15:49:13.686Z,90351.34
2023-05-09T15:51:58.733Z,90359.22
2023-05-09T15:54:43.731Z,90353.53
2023-05-09T15:57:28.769Z,90364.31
2023-05-09T16:00:13.803Z,90361.94
2023-05-09T16:02:59.214Z,90353.94
2023-05-09T16:05:44.107Z,90356.41
2023-05-09T16:08:29.014Z,90365.28
2023-05-09T16:11:14.108Z,90370.03
2023-05-09T16:13:58.983Z,90360.31
2023-05-09T16:16:44.071Z,90359.44
2023-05-09T16:19:28.902Z,90363.19
2023-05-09T16:22:13.915Z,90360.06
2023-05-09T16:24:58.828Z,90362.22
2023-05-09T16:27:43.825Z,90365.09
2023-05-09T16:30:28.730Z,90360.09
2023-05-09T16:33:13.580Z,90360.66
2023-05-09T16:35:58.625Z,90366.22
2023-05-09T16:38:43.483Z,90376.25
2023-05-09T16:41:28.473Z,90369.44
2023-05-09T16:44:13.556Z,90376.69
2023-05-09T16:46:58.404Z,90379.81
2023-05-09T16:49:43.426Z,90370.19
2023-05-09T16:52:28.323Z,90378.59
2023-05-09T16:55:13.427Z,90379.56
2023-05-09T16:57:58.366Z,90383.97
2023-05-09T17:00:43.432Z,90375.66
2023-05-09T17:03:28.449Z,90373.75
2023-05-09T17:06:13.436Z,90372.69
2023-05-09T17:08:58.333Z,90373.91
2023-05-09T17:11:43.202Z,90369.66
2023-05-09T17:14:28.145Z,90376.78
2023-05-09T17:17:13.058Z,90379.03
2023-05-09T17:19:58.066Z,90379.03
2023-05-09T17:22:42.921Z,90379.78
2023-05-09T17:25:27.828Z,90373.72
2023-05-09T17:28:12.759Z,90371.09
2023-05-09T17:30:57.542Z,90377.06
2023-05-09T17:33:42.266Z,90371.97
2023-05-09T17:36:27.281Z,90372.19
2023-05-09T17:39:12.190Z,90375.25
2023-05-09T17:41:57.370Z,90382.91
2023-05-09T17:44:44.259Z,90380.50
2023-05-09T17:47:29.531Z,90390.13
2023-05-09T17:50:14.647Z,90388.50
2023-05-09T17:53:00.174Z,90393.06
2023-05-09T17:55:45.114Z,90381.28
2023-05-09T17:58:29.988Z,90392.00
2023-05-09T18:01:15.252Z,90384.44
2023-05-09T18:04:00.361Z,90391.28
2023-05-09T18:06:45.388Z,90397.97
2023-05-09T18:09:30.439Z,90389.13
2023-05-09T18:12:15.399Z,90394.16
2023-05-09T18:15:00.626Z,90394.53
2023-05-09T18:17:45.401Z,90396.56
2023-05-09T18:20:30.343Z,90401.38
2023-05-09T18:23:15.374Z,90399.94
2023-05-09T18:26:00.246Z,90402.72
2023-05-09T18:28:45.108Z,90408.44
2023-05-09T18:31:30.133Z,90409.00
2023-05-09T18:34:17.564Z,90413.50
2023-05-09T18:37:02.571Z,90420.88
2023-05-09T18:39:47.505Z,90418.88
2023-05-09T18:42:32.860Z,90415.41
2023-05-09T18:45:17.694Z,90420.59
2023-05-09T18:48:03.039Z,90426.47
2023-05-09T18:50:48.166Z,90425.72
2023-05-09T18:53:33.407Z,90429.50
2023-05-09T18:56:18.851Z,90437.06
2023-05-09T18:59:03.842Z,90436.88
2023-05-09T19:01:49.059Z,90439.50
2023-05-09T19:04:37.421Z,90443.00
2023-05-09T19:07:22.699Z,90447.59
2023-05-09T19:10:08.012Z,90439.47
2023-05-09T19:12:53.122Z,90453.13
2023-05-09T19:15:42.650Z,90450.91
2023-05-09T19:18:28.015Z,90459.25
2023-05-09T19:21:13.349Z,90459.44
2023-05-09T19:23:58.666Z,90453.16
2023-05-09T19:26:43.480Z,90456.84
2023-05-09T19:29:28.732Z,90460.16
2023-05-09T19:32:14.053Z,90459.97
2023-05-09T19:34:59.227Z,90455.72
2023-05-09T19:37:46.925Z,90459.06
2023-05-09T19:40:32.007Z,90457.38
2023-05-09T19:43:17.141Z,90460.72
2023-05-09T19:46:02.237Z,90468.09
2023-05-09T19:48:47.328Z,90463.69
2023-05-09T19:51:32.221Z,90469.56
2023-05-09T19:54:16.978Z,90465.50
2023-05-09T19:57:02.245Z,90462.94
2023-05-09T19:59:49.704Z,90461.25
2023-05-09T20:02:34.605Z,90464.41
2023-05-09T20:05:19.575Z,90465.31
2023-05-09T20:08:04.333Z,90470.31
2023-05-09T20:10:49.528Z,90463.28
2023-05-09T20:13:34.498Z,90461.66
2023-05-09T20:16:19.510Z,90457.97
2023-05-09T20:19:04.486Z,90462.03
2023-05-09T20:21:49.739Z,90456.66
2023-05-09T20:24:35.260Z,90455.00
2023-05-09T20:27:20.250Z,90461.47
2023-05-09T20:30:05.445Z,90454.28
2023-05-09T20:32:50.736Z,90453.53
2023-05-09T20:35:35.902Z,90457.22
2023-05-09T20:38:20.735Z,90450.94
2023-05-09T20:41:05.769Z,90450.41
2023-05-09T20:43:50.685Z,90446.72
2023-05-09T20:46:35.679Z,90444.88
2023-05-09T20:49:20.676Z,90450.03
2023-05-09T20:52:05.611Z,90447.28
2023-05-09T20:54:50.612Z,90443.78
2023-05-09T20:57:35.529Z,90447.47
2023-05-09T21:00:20.559Z,90448.56
2023-05-09T21:03:05.616Z,90444.50
2023-05-09T21:05:50.342Z,90449.09
2023-05-09T21:08:35.367Z,90444.88
2023-05-09T21:11:20.242Z,90435.66
2023-05-09T21:14:05.118Z,90433.97
2023-05-09T21:16:50.091Z,90440.97
2023-05-09T21:19:34.942Z,90441.56
2023-05-09T21:22:19.843Z,90445.59
2023-05-09T21:25:04.981Z,90441.91
2023-05-09T21:27:49.981Z,90440.78
2023-05-09T21:30:35.178Z,90441.19
2023-05-09T21:33:20.266Z,90439.31
2023-05-09T21:36:05.184Z,90440.41
2023-05-09T21:38:50.228Z,90441.34
2023-05-09T21:41:35.058Z,90448.34
2023-05-09T21:44:20.010Z,90445.78
2023-05-09T21:47:05.137Z,90440.38
2023-05-09T21:49:49.961Z,90442.97
2023-05-09T21:52:35.122Z,90444.63
2023-05-09T21:55:20.019Z,90445.91
2023-05-09T21:58:05.314Z,90454.00
2023-05-09T22:00:50.285Z,90448.63
2023-05-09T22:03:35.378Z,90456.38
2023-05-09T22:06:20.164Z,90459.13
2023-05-09T22:09:05.011Z,90453.59
2023-05-09T22:11:49.932Z,90453.41
2023-05-09T22:14:39.490Z,90456.50
2023-05-09T22:17:33.502Z,90457.09
2023-05-09T22:20:18.755Z,90462.81
2023-05-09T22:23:03.997Z,90464.25
2023-05-09T22:25:48.894Z,90470.50
2023-05-09T22:28:33.914Z,90470.50
2023-05-09T22:31:18.759Z,90467.00
2023-05-09T22:34:03.864Z,90461.66
2023-05-09T22:36:48.640Z,90462.41
2023-05-09T22:39:33.728Z,90464.44
2023-05-09T22:42:18.780Z,90456.72
2023-05-09T22:45:03.613Z,90455.22
2023-05-09T22:47:48.735Z,90462.41
2023-05-09T22:50:33.630Z,90457.44
2023-05-09T22:53:18.588Z,90466.13
2023-05-09T22:56:03.416Z,90451.38
2023-05-09T22:58:48.416Z,90463.34
2023-05-09T23:01:33.378Z,90453.22
2023-05-09T23:04:18.445Z,90460.41
2023-05-09T23:07:03.337Z,90456.56
2023-05-09T23:09:48.169Z,90451.56
2023-05-09T23:12:33.295Z,90453.03
2023-05-09T23:15:18.363Z,90462.97
2023-05-09T23:18:03.396Z,90450.28
2023-05-09T23:20:48.062Z,90454.66
2023-05-09T23:23:32.909Z,90453.13
2023-05-09T23:26:17.817Z,90462.91
2023-05-09T23:29:02.921Z,90453.88
2023-05-09T23:31:47.910Z,90447.81
2023-05-09T23:34:32.869Z,90441.94
2023-05-09T23:37:18.019Z,90444.50
2023-05-09T23:40:02.927Z,90453.19
2023-05-09T23:42:47.832Z,90446.53
2023-05-09T23:45:32.689Z,90440.59
2023-05-09T23:48:17.771Z,90444.44
2023-05-09T23:51:02.712Z,90450.91
2023-05-09T23:53:47.720Z,90449.63
2023-05-09T23:56:32.789Z,90452.00
2023-05-09T23:59:17.668Z,90441.88
